sensor_id;sensor_type;location;lat;lon;timestamp;P1;durP1;ratioP1;P2;durP2;ratioP2
83125;SDS011;73488;47.234;-1.540;2023-11-19T00:02:06;6.40;;;1.80;;
83125;SDS011;73488;47.234;-1.540;2023-11-19T00:04:33;6.80;;;2.03;;
83125;SDS011;73488;47.234;-1.540;2023-11-19T00:07:01;4.05;;;1.75;;
83125;SDS011;73488;47.234;-1.540;2023-11-19T00:09:29;5.22;;;1.65;;
83125;SDS011;73488;47.234;-1.540;2023-11-19T00:11:55;4.97;;;1.70;;
83125;SDS011;73488;47.234;-1.540;2023-11-19T00:14:20;6.63;;;2.08;;
83125;SDS011;73488;47.234;-1.540;2023-11-19T00:16:46;5.30;;;2.03;;
83125;SDS011;73488;47.234;-1.540;2023-11-19T00:19:11;4.25;;;1.73;;
83125;SDS011;73488;47.234;-1.540;2023-11-19T00:21:37;6.95;;;2.00;;
83125;SDS011;73488;47.234;-1.540;2023-11-19T00:24:02;5.55;;;1.77;;
83125;SDS011;73488;47.234;-1.540;2023-11-19T00:26:29;6.00;;;1.55;;
83125;SDS011;73488;47.234;-1.540;2023-11-19T00:28:55;5.25;;;2.05;;
83125;SDS011;73488;47.234;-1.540;2023-11-19T00:31:21;4.90;;;1.60;;
83125;SDS011;73488;47.234;-1.540;2023-11-19T00:33:47;4.72;;;1.85;;
83125;SDS011;73488;47.234;-1.540;2023-11-19T00:36:12;7.50;;;2.13;;
83125;SDS011;73488;47.234;-1.540;2023-11-19T00:38:38;6.70;;;2.13;;
83125;SDS011;73488;47.234;-1.540;2023-11-19T00:41:03;4.43;;;1.80;;
83125;SDS011;73488;47.234;-1.540;2023-11-19T00:43:29;8.80;;;2.30;;
83125;SDS011;73488;47.234;-1.540;2023-11-19T00:45:54;4.70;;;1.80;;
83125;SDS011;73488;47.234;-1.540;2023-11-19T00:48:20;3.25;;;1.20;;
83125;SDS011;73488;47.234;-1.540;2023-11-19T00:50:45;6.25;;;1.90;;
83125;SDS011;73488;47.234;-1.540;2023-11-19T00:53:11;6.88;;;1.80;;
83125;SDS011;73488;47.234;-1.540;2023-11-19T00:55:37;3.55;;;1.55;;
83125;SDS011;73488;47.234;-1.540;2023-11-19T00:58:02;4.32;;;2.03;;
83125;SDS011;73488;47.234;-1.540;2023-11-19T01:00:28;7.18;;;1.75;;
83125;SDS011;73488;47.234;-1.540;2023-11-19T01:02:53;7.20;;;1.67;;
83125;SDS011;73488;47.234;-1.540;2023-11-19T01:05:19;5.82;;;2.03;;
83125;SDS011;73488;47.234;-1.540;2023-11-19T01:07:48;7.32;;;1.50;;
83125;SDS011;73488;47.234;-1.540;2023-11-19T01:10:15;6.82;;;1.50;;
83125;SDS011;73488;47.234;-1.540;2023-11-19T01:15:09;6.37;;;2.10;;
83125;SDS011;73488;47.234;-1.540;2023-11-19T01:17:36;5.70;;;1.48;;
83125;SDS011;73488;47.234;-1.540;2023-11-19T01:20:02;6.53;;;1.63;;
83125;SDS011;73488;47.234;-1.540;2023-11-19T01:24:56;6.97;;;1.65;;
83125;SDS011;73488;47.234;-1.540;2023-11-19T01:27:23;7.90;;;2.05;;
83125;SDS011;73488;47.234;-1.540;2023-11-19T01:29:49;7.03;;;2.05;;
83125;SDS011;73488;47.234;-1.540;2023-11-19T01:32:14;7.57;;;1.83;;
83125;SDS011;73488;47.234;-1.540;2023-11-19T01:34:40;5.30;;;1.77;;
83125;SDS011;73488;47.234;-1.540;2023-11-19T01:37:06;6.68;;;1.60;;
83125;SDS011;73488;47.234;-1.540;2023-11-19T01:39:31;8.27;;;2.00;;
83125;SDS011;73488;47.234;-1.540;2023-11-19T01:41:57;8.95;;;1.70;;
83125;SDS011;73488;47.234;-1.540;2023-11-19T01:44:22;7.20;;;2.20;;
83125;SDS011;73488;47.234;-1.540;2023-11-19T01:46:47;3.78;;;1.30;;
83125;SDS011;73488;47.234;-1.540;2023-11-19T01:49:17;6.00;;;1.65;;
83125;SDS011;73488;47.234;-1.540;2023-11-19T01:51:42;5.53;;;1.45;;
83125;SDS011;73488;47.234;-1.540;2023-11-19T01:54:08;5.45;;;1.65;;
83125;SDS011;73488;47.234;-1.540;2023-11-19T01:56:44;4.30;;;1.65;;
83125;SDS011;73488;47.234;-1.540;2023-11-19T01:59:26;5.25;;;1.85;;
83125;SDS011;73488;47.234;-1.540;2023-11-19T02:01:53;5.43;;;1.70;;
83125;SDS011;73488;47.234;-1.540;2023-11-19T02:04:20;5.22;;;1.27;;
83125;SDS011;73488;47.234;-1.540;2023-11-19T02:06:46;5.47;;;1.58;;
83125;SDS011;73488;47.234;-1.540;2023-11-19T02:09:12;5.93;;;1.83;;
83125;SDS011;73488;47.234;-1.540;2023-11-19T02:11:39;5.50;;;2.05;;
83125;SDS011;73488;47.234;-1.540;2023-11-19T02:14:05;5.22;;;1.80;;
83125;SDS011;73488;47.234;-1.540;2023-11-19T02:16:31;7.38;;;2.17;;
83125;SDS011;73488;47.234;-1.540;2023-11-19T02:18:57;5.00;;;1.40;;
83125;SDS011;73488;47.234;-1.540;2023-11-19T02:21:22;5.57;;;1.35;;
83125;SDS011;73488;47.234;-1.540;2023-11-19T02:23:47;6.72;;;1.90;;
83125;SDS011;73488;47.234;-1.540;2023-11-19T02:26:14;6.63;;;1.40;;
83125;SDS011;73488;47.234;-1.540;2023-11-19T02:31:13;5.38;;;1.52;;
83125;SDS011;73488;47.234;-1.540;2023-11-19T02:33:39;6.60;;;2.08;;
83125;SDS011;73488;47.234;-1.540;2023-11-19T02:36:05;6.53;;;1.50;;
83125;SDS011;73488;47.234;-1.540;2023-11-19T02:38:32;6.97;;;1.42;;
83125;SDS011;73488;47.234;-1.540;2023-11-19T02:40:58;6.40;;;1.70;;
83125;SDS011;73488;47.234;-1.540;2023-11-19T02:43:23;6.38;;;1.50;;
83125;SDS011;73488;47.234;-1.540;2023-11-19T02:45:49;7.05;;;1.67;;
83125;SDS011;73488;47.234;-1.540;2023-11-19T02:48:15;8.00;;;1.77;;
83125;SDS011;73488;47.234;-1.540;2023-11-19T02:50:41;8.15;;;1.60;;
83125;SDS011;73488;47.234;-1.540;2023-11-19T02:53:07;7.85;;;1.88;;
83125;SDS011;73488;47.234;-1.540;2023-11-19T02:55:32;6.57;;;1.73;;
83125;SDS011;73488;47.234;-1.540;2023-11-19T02:58:02;5.13;;;1.45;;
83125;SDS011;73488;47.234;-1.540;2023-11-19T03:00:34;6.20;;;1.50;;
83125;SDS011;73488;47.234;-1.540;2023-11-19T03:03:02;5.95;;;1.80;;
83125;SDS011;73488;47.234;-1.540;2023-11-19T03:08:09;8.43;;;1.73;;
83125;SDS011;73488;47.234;-1.540;2023-11-19T03:10:35;4.47;;;1.52;;
83125;SDS011;73488;47.234;-1.540;2023-11-19T03:13:01;6.75;;;1.40;;
83125;SDS011;73488;47.234;-1.540;2023-11-19T03:15:27;8.10;;;1.85;;
83125;SDS011;73488;47.234;-1.540;2023-11-19T03:17:52;7.75;;;2.03;;
83125;SDS011;73488;47.234;-1.540;2023-11-19T03:20:18;4.63;;;1.50;;
83125;SDS011;73488;47.234;-1.540;2023-11-19T03:22:43;7.38;;;1.73;;
83125;SDS011;73488;47.234;-1.540;2023-11-19T03:25:09;4.70;;;1.75;;
83125;SDS011;73488;47.234;-1.540;2023-11-19T03:27:35;6.82;;;1.58;;
83125;SDS011;73488;47.234;-1.540;2023-11-19T03:30:02;4.07;;;1.55;;
83125;SDS011;73488;47.234;-1.540;2023-11-19T03:32:29;4.05;;;1.45;;
83125;SDS011;73488;47.234;-1.540;2023-11-19T03:34:55;3.05;;;1.65;;
83125;SDS011;73488;47.234;-1.540;2023-11-19T03:37:21;3.95;;;1.58;;
83125;SDS011;73488;47.234;-1.540;2023-11-19T03:39:46;4.97;;;1.75;;
83125;SDS011;73488;47.234;-1.540;2023-11-19T03:42:12;3.67;;;1.35;;
83125;SDS011;73488;47.234;-1.540;2023-11-19T03:44:38;8.50;;;2.08;;
83125;SDS011;73488;47.234;-1.540;2023-11-19T03:47:03;7.72;;;1.67;;
83125;SDS011;73488;47.234;-1.540;2023-11-19T03:49:29;5.03;;;1.98;;
83125;SDS011;73488;47.234;-1.540;2023-11-19T03:51:54;5.72;;;1.83;;
83125;SDS011;73488;47.234;-1.540;2023-11-19T03:54:20;4.45;;;2.03;;
83125;SDS011;73488;47.234;-1.540;2023-11-19T03:56:48;7.65;;;1.77;;
83125;SDS011;73488;47.234;-1.540;2023-11-19T03:59:13;6.53;;;1.30;;
83125;SDS011;73488;47.234;-1.540;2023-11-19T04:01:40;6.28;;;1.42;;
83125;SDS011;73488;47.234;-1.540;2023-11-19T04:04:05;6.07;;;1.35;;
83125;SDS011;73488;47.234;-1.540;2023-11-19T04:06:31;5.68;;;1.73;;
83125;SDS011;73488;47.234;-1.540;2023-11-19T04:08:56;3.85;;;1.33;;
83125;SDS011;73488;47.234;-1.540;2023-11-19T04:11:22;4.07;;;1.33;;
83125;SDS011;73488;47.234;-1.540;2023-11-19T04:13:47;4.18;;;1.83;;
83125;SDS011;73488;47.234;-1.540;2023-11-19T04:16:13;3.92;;;1.60;;
83125;SDS011;73488;47.234;-1.540;2023-11-19T04:18:39;5.10;;;2.08;;
83125;SDS011;73488;47.234;-1.540;2023-11-19T04:21:08;3.22;;;1.23;;
83125;SDS011;73488;47.234;-1.540;2023-11-19T04:23:33;5.85;;;1.63;;
83125;SDS011;73488;47.234;-1.540;2023-11-19T04:26:01;5.05;;;1.40;;
83125;SDS011;73488;47.234;-1.540;2023-11-19T04:30:53;5.63;;;1.33;;
83125;SDS011;73488;47.234;-1.540;2023-11-19T04:33:18;6.75;;;1.70;;
83125;SDS011;73488;47.234;-1.540;2023-11-19T04:35:43;5.10;;;1.20;;
83125;SDS011;73488;47.234;-1.540;2023-11-19T04:38:09;5.65;;;1.73;;
83125;SDS011;73488;47.234;-1.540;2023-11-19T04:40:34;5.93;;;1.67;;
83125;SDS011;73488;47.234;-1.540;2023-11-19T04:42:59;5.30;;;1.48;;
83125;SDS011;73488;47.234;-1.540;2023-11-19T04:45:25;7.95;;;1.52;;
83125;SDS011;73488;47.234;-1.540;2023-11-19T04:47:51;5.07;;;1.63;;
83125;SDS011;73488;47.234;-1.540;2023-11-19T04:50:16;11.98;;;2.28;;
83125;SDS011;73488;47.234;-1.540;2023-11-19T04:52:42;4.35;;;1.58;;
83125;SDS011;73488;47.234;-1.540;2023-11-19T04:55:10;5.07;;;1.42;;
83125;SDS011;73488;47.234;-1.540;2023-11-19T04:57:39;7.25;;;1.80;;
83125;SDS011;73488;47.234;-1.540;2023-11-19T05:00:05;4.70;;;1.55;;
83125;SDS011;73488;47.234;-1.540;2023-11-19T05:02:32;6.68;;;1.52;;
83125;SDS011;73488;47.234;-1.540;2023-11-19T05:04:59;5.57;;;2.00;;
83125;SDS011;73488;47.234;-1.540;2023-11-19T05:07:24;6.35;;;1.58;;
83125;SDS011;73488;47.234;-1.540;2023-11-19T05:09:50;5.93;;;1.60;;
83125;SDS011;73488;47.234;-1.540;2023-11-19T05:12:15;5.97;;;1.67;;
83125;SDS011;73488;47.234;-1.540;2023-11-19T05:14:41;7.22;;;1.98;;
83125;SDS011;73488;47.234;-1.540;2023-11-19T05:17:13;6.72;;;1.30;;
83125;SDS011;73488;47.234;-1.540;2023-11-19T05:19:38;5.18;;;1.42;;
83125;SDS011;73488;47.234;-1.540;2023-11-19T05:22:03;5.75;;;1.90;;
83125;SDS011;73488;47.234;-1.540;2023-11-19T05:24:29;5.95;;;1.63;;
83125;SDS011;73488;47.234;-1.540;2023-11-19T05:26:54;6.07;;;1.42;;
83125;SDS011;73488;47.234;-1.540;2023-11-19T05:29:20;7.35;;;1.58;;
83125;SDS011;73488;47.234;-1.540;2023-11-19T05:31:45;4.78;;;1.90;;
83125;SDS011;73488;47.234;-1.540;2023-11-19T05:34:10;7.00;;;1.73;;
83125;SDS011;73488;47.234;-1.540;2023-11-19T05:36:36;6.72;;;1.95;;
83125;SDS011;73488;47.234;-1.540;2023-11-19T05:39:02;4.50;;;1.23;;
83125;SDS011;73488;47.234;-1.540;2023-11-19T05:41:28;4.88;;;1.20;;
83125;SDS011;73488;47.234;-1.540;2023-11-19T05:43:54;6.05;;;1.23;;
83125;SDS011;73488;47.234;-1.540;2023-11-19T05:46:19;9.07;;;2.15;;
83125;SDS011;73488;47.234;-1.540;2023-11-19T05:48:44;7.47;;;1.80;;
83125;SDS011;73488;47.234;-1.540;2023-11-19T05:51:11;5.78;;;1.52;;
83125;SDS011;73488;47.234;-1.540;2023-11-19T05:53:37;4.53;;;1.60;;
83125;SDS011;73488;47.234;-1.540;2023-11-19T05:56:02;5.22;;;1.50;;
83125;SDS011;73488;47.234;-1.540;2023-11-19T05:58:29;7.50;;;1.58;;
83125;SDS011;73488;47.234;-1.540;2023-11-19T06:00:55;6.00;;;1.80;;
83125;SDS011;73488;47.234;-1.540;2023-11-19T06:03:21;6.78;;;1.88;;
83125;SDS011;73488;47.234;-1.540;2023-11-19T06:05:47;7.38;;;1.83;;
83125;SDS011;73488;47.234;-1.540;2023-11-19T06:08:13;5.25;;;1.60;;
83125;SDS011;73488;47.234;-1.540;2023-11-19T06:10:40;4.60;;;1.55;;
83125;SDS011;73488;47.234;-1.540;2023-11-19T06:13:06;4.60;;;1.70;;
83125;SDS011;73488;47.234;-1.540;2023-11-19T06:15:31;5.38;;;1.60;;
83125;SDS011;73488;47.234;-1.540;2023-11-19T06:17:58;10.15;;;1.92;;
83125;SDS011;73488;47.234;-1.540;2023-11-19T06:20:26;9.05;;;1.95;;
83125;SDS011;73488;47.234;-1.540;2023-11-19T06:22:53;8.70;;;1.60;;
83125;SDS011;73488;47.234;-1.540;2023-11-19T06:25:19;6.45;;;1.33;;
83125;SDS011;73488;47.234;-1.540;2023-11-19T06:27:44;5.72;;;1.50;;
83125;SDS011;73488;47.234;-1.540;2023-11-19T06:30:10;8.15;;;1.50;;
83125;SDS011;73488;47.234;-1.540;2023-11-19T06:32:36;8.38;;;1.65;;
83125;SDS011;73488;47.234;-1.540;2023-11-19T06:35:02;3.60;;;1.55;;
83125;SDS011;73488;47.234;-1.540;2023-11-19T06:37:29;12.73;;;1.95;;
83125;SDS011;73488;47.234;-1.540;2023-11-19T06:39:55;5.55;;;1.60;;
83125;SDS011;73488;47.234;-1.540;2023-11-19T06:42:20;7.68;;;2.10;;
83125;SDS011;73488;47.234;-1.540;2023-11-19T06:44:46;8.68;;;2.72;;
83125;SDS011;73488;47.234;-1.540;2023-11-19T06:47:11;6.63;;;2.05;;
83125;SDS011;73488;47.234;-1.540;2023-11-19T06:49:36;6.72;;;1.60;;
83125;SDS011;73488;47.234;-1.540;2023-11-19T06:52:02;5.05;;;1.48;;
83125;SDS011;73488;47.234;-1.540;2023-11-19T06:54:28;7.18;;;1.95;;
83125;SDS011;73488;47.234;-1.540;2023-11-19T06:56:53;6.32;;;1.80;;
83125;SDS011;73488;47.234;-1.540;2023-11-19T06:59:18;7.80;;;1.73;;
83125;SDS011;73488;47.234;-1.540;2023-11-19T07:01:44;7.15;;;1.55;;
83125;SDS011;73488;47.234;-1.540;2023-11-19T07:04:12;7.00;;;1.85;;
83125;SDS011;73488;47.234;-1.540;2023-11-19T07:06:38;7.63;;;1.70;;
83125;SDS011;73488;47.234;-1.540;2023-11-19T07:09:06;6.85;;;1.95;;
83125;SDS011;73488;47.234;-1.540;2023-11-19T07:14:00;8.13;;;2.00;;
83125;SDS011;73488;47.234;-1.540;2023-11-19T07:16:27;8.65;;;1.77;;
83125;SDS011;73488;47.234;-1.540;2023-11-19T07:18:52;9.82;;;1.75;;
83125;SDS011;73488;47.234;-1.540;2023-11-19T07:21:17;5.82;;;1.92;;
83125;SDS011;73488;47.234;-1.540;2023-11-19T07:23:43;6.45;;;1.58;;
83125;SDS011;73488;47.234;-1.540;2023-11-19T07:26:08;4.75;;;1.23;;
83125;SDS011;73488;47.234;-1.540;2023-11-19T07:28:34;7.80;;;1.50;;
83125;SDS011;73488;47.234;-1.540;2023-11-19T07:30:59;10.52;;;1.60;;
83125;SDS011;73488;47.234;-1.540;2023-11-19T07:33:25;6.50;;;1.95;;
83125;SDS011;73488;47.234;-1.540;2023-11-19T07:35:50;6.90;;;1.85;;
83125;SDS011;73488;47.234;-1.540;2023-11-19T07:38:16;7.95;;;1.92;;
83125;SDS011;73488;47.234;-1.540;2023-11-19T07:40:42;6.20;;;1.65;;
83125;SDS011;73488;47.234;-1.540;2023-11-19T07:43:07;5.38;;;1.80;;
83125;SDS011;73488;47.234;-1.540;2023-11-19T07:45:32;9.10;;;1.40;;
83125;SDS011;73488;47.234;-1.540;2023-11-19T07:47:59;6.82;;;1.63;;
83125;SDS011;73488;47.234;-1.540;2023-11-19T07:50:26;7.50;;;1.50;;
83125;SDS011;73488;47.234;-1.540;2023-11-19T07:52:51;7.35;;;1.90;;
83125;SDS011;73488;47.234;-1.540;2023-11-19T07:55:17;6.97;;;1.48;;
83125;SDS011;73488;47.234;-1.540;2023-11-19T07:57:42;7.28;;;2.20;;
83125;SDS011;73488;47.234;-1.540;2023-11-19T08:00:08;6.35;;;1.83;;
83125;SDS011;73488;47.234;-1.540;2023-11-19T08:02:37;8.88;;;2.00;;
83125;SDS011;73488;47.234;-1.540;2023-11-19T08:05:03;6.38;;;1.75;;
83125;SDS011;73488;47.234;-1.540;2023-11-19T08:07:29;6.93;;;1.98;;
83125;SDS011;73488;47.234;-1.540;2023-11-19T08:09:54;6.00;;;2.05;;
83125;SDS011;73488;47.234;-1.540;2023-11-19T08:12:19;10.63;;;1.60;;
83125;SDS011;73488;47.234;-1.540;2023-11-19T08:14:45;9.60;;;2.28;;
83125;SDS011;73488;47.234;-1.540;2023-11-19T08:17:10;9.95;;;2.53;;
83125;SDS011;73488;47.234;-1.540;2023-11-19T08:19:36;10.95;;;2.15;;
83125;SDS011;73488;47.234;-1.540;2023-11-19T08:22:01;12.77;;;2.88;;
83125;SDS011;73488;47.234;-1.540;2023-11-19T08:24:27;12.38;;;2.40;;
83125;SDS011;73488;47.234;-1.540;2023-11-19T08:26:53;11.82;;;1.98;;
83125;SDS011;73488;47.234;-1.540;2023-11-19T08:29:19;11.65;;;2.65;;
83125;SDS011;73488;47.234;-1.540;2023-11-19T08:31:44;14.98;;;2.70;;
83125;SDS011;73488;47.234;-1.540;2023-11-19T08:34:11;9.80;;;1.90;;
83125;SDS011;73488;47.234;-1.540;2023-11-19T08:36:36;13.38;;;2.28;;
83125;SDS011;73488;47.234;-1.540;2023-11-19T08:39:02;12.55;;;2.00;;
83125;SDS011;73488;47.234;-1.540;2023-11-19T08:41:28;11.60;;;1.90;;
83125;SDS011;73488;47.234;-1.540;2023-11-19T08:43:53;10.98;;;2.55;;
83125;SDS011;73488;47.234;-1.540;2023-11-19T08:46:19;15.48;;;2.15;;
83125;SDS011;73488;47.234;-1.540;2023-11-19T08:48:44;9.50;;;2.33;;
83125;SDS011;73488;47.234;-1.540;2023-11-19T08:51:11;13.23;;;2.58;;
83125;SDS011;73488;47.234;-1.540;2023-11-19T08:53:37;14.85;;;2.78;;
83125;SDS011;73488;47.234;-1.540;2023-11-19T08:56:02;23.95;;;3.33;;
83125;SDS011;73488;47.234;-1.540;2023-11-19T08:58:28;11.65;;;2.45;;
83125;SDS011;73488;47.234;-1.540;2023-11-19T09:00:53;12.23;;;2.38;;
83125;SDS011;73488;47.234;-1.540;2023-11-19T09:03:19;16.90;;;2.42;;
83125;SDS011;73488;47.234;-1.540;2023-11-19T09:05:45;9.07;;;2.17;;
83125;SDS011;73488;47.234;-1.540;2023-11-19T09:08:11;14.27;;;2.65;;
83125;SDS011;73488;47.234;-1.540;2023-11-19T09:10:37;10.10;;;2.55;;
83125;SDS011;73488;47.234;-1.540;2023-11-19T09:13:02;15.32;;;3.17;;
83125;SDS011;73488;47.234;-1.540;2023-11-19T09:15:28;19.88;;;2.65;;
83125;SDS011;73488;47.234;-1.540;2023-11-19T09:17:54;18.67;;;2.65;;
83125;SDS011;73488;47.234;-1.540;2023-11-19T09:20:19;16.17;;;2.83;;
83125;SDS011;73488;47.234;-1.540;2023-11-19T09:22:45;14.05;;;3.15;;
83125;SDS011;73488;47.234;-1.540;2023-11-19T09:25:11;16.00;;;3.30;;
83125;SDS011;73488;47.234;-1.540;2023-11-19T09:27:36;16.67;;;3.25;;
83125;SDS011;73488;47.234;-1.540;2023-11-19T09:30:02;10.05;;;2.20;;
83125;SDS011;73488;47.234;-1.540;2023-11-19T09:32:28;16.42;;;2.83;;
83125;SDS011;73488;47.234;-1.540;2023-11-19T09:34:54;25.38;;;3.17;;
83125;SDS011;73488;47.234;-1.540;2023-11-19T09:37:19;20.75;;;3.08;;
83125;SDS011;73488;47.234;-1.540;2023-11-19T09:39:45;12.25;;;2.20;;
83125;SDS011;73488;47.234;-1.540;2023-11-19T09:42:10;13.85;;;2.50;;
83125;SDS011;73488;47.234;-1.540;2023-11-19T09:44:37;15.75;;;3.00;;
83125;SDS011;73488;47.234;-1.540;2023-11-19T09:47:04;17.15;;;3.03;;
83125;SDS011;73488;47.234;-1.540;2023-11-19T09:49:32;11.15;;;2.22;;
83125;SDS011;73488;47.234;-1.540;2023-11-19T09:51:58;18.80;;;3.45;;
83125;SDS011;73488;47.234;-1.540;2023-11-19T09:54:24;13.00;;;3.00;;
83125;SDS011;73488;47.234;-1.540;2023-11-19T09:56:49;16.08;;;2.45;;
83125;SDS011;73488;47.234;-1.540;2023-11-19T09:59:15;19.50;;;2.95;;
83125;SDS011;73488;47.234;-1.540;2023-11-19T10:01:41;17.27;;;3.00;;
83125;SDS011;73488;47.234;-1.540;2023-11-19T10:04:06;17.63;;;3.40;;
83125;SDS011;73488;47.234;-1.540;2023-11-19T10:06:32;13.82;;;3.13;;
83125;SDS011;73488;47.234;-1.540;2023-11-19T10:08:57;16.95;;;3.05;;
83125;SDS011;73488;47.234;-1.540;2023-11-19T10:11:24;18.45;;;2.95;;
83125;SDS011;73488;47.234;-1.540;2023-11-19T10:13:50;13.40;;;2.70;;
83125;SDS011;73488;47.234;-1.540;2023-11-19T10:16:17;14.35;;;2.80;;
83125;SDS011;73488;47.234;-1.540;2023-11-19T10:18:46;15.73;;;2.55;;
83125;SDS011;73488;47.234;-1.540;2023-11-19T10:21:13;12.93;;;3.20;;
83125;SDS011;73488;47.234;-1.540;2023-11-19T10:26:17;14.38;;;2.72;;
83125;SDS011;73488;47.234;-1.540;2023-11-19T10:28:44;19.35;;;3.28;;
83125;SDS011;73488;47.234;-1.540;2023-11-19T10:31:17;21.10;;;3.05;;
83125;SDS011;73488;47.234;-1.540;2023-11-19T10:33:44;13.50;;;2.88;;
83125;SDS011;73488;47.234;-1.540;2023-11-19T10:36:10;10.88;;;2.47;;
83125;SDS011;73488;47.234;-1.540;2023-11-19T10:38:37;17.33;;;3.03;;
83125;SDS011;73488;47.234;-1.540;2023-11-19T10:41:03;13.18;;;2.20;;
83125;SDS011;73488;47.234;-1.540;2023-11-19T10:43:30;15.70;;;2.60;;
83125;SDS011;73488;47.234;-1.540;2023-11-19T10:46:14;11.77;;;2.28;;
83125;SDS011;73488;47.234;-1.540;2023-11-19T10:48:45;17.42;;;3.00;;
83125;SDS011;73488;47.234;-1.540;2023-11-19T10:51:11;13.57;;;2.45;;
83125;SDS011;73488;47.234;-1.540;2023-11-19T10:53:39;8.65;;;2.65;;
83125;SDS011;73488;47.234;-1.540;2023-11-19T10:56:09;16.42;;;3.50;;
83125;SDS011;73488;47.234;-1.540;2023-11-19T10:58:36;19.92;;;3.85;;
83125;SDS011;73488;47.234;-1.540;2023-11-19T11:03:36;23.77;;;3.83;;
83125;SDS011;73488;47.234;-1.540;2023-11-19T11:06:06;26.17;;;4.75;;
83125;SDS011;73488;47.234;-1.540;2023-11-19T11:08:31;21.40;;;3.65;;
83125;SDS011;73488;47.234;-1.540;2023-11-19T11:11:01;23.70;;;4.05;;
83125;SDS011;73488;47.234;-1.540;2023-11-19T11:13:27;19.85;;;4.60;;
83125;SDS011;73488;47.234;-1.540;2023-11-19T11:15:53;18.13;;;4.25;;
83125;SDS011;73488;47.234;-1.540;2023-11-19T11:18:22;19.35;;;4.05;;
83125;SDS011;73488;47.234;-1.540;2023-11-19T11:20:49;21.48;;;3.80;;
83125;SDS011;73488;47.234;-1.540;2023-11-19T11:32:17;19.02;;;4.10;;
83125;SDS011;73488;47.234;-1.540;2023-11-19T11:37:36;16.95;;;3.80;;
83125;SDS011;73488;47.234;-1.540;2023-11-19T11:40:04;25.05;;;4.38;;
83125;SDS011;73488;47.234;-1.540;2023-11-19T11:42:35;50.90;;;17.05;;
83125;SDS011;73488;47.234;-1.540;2023-11-19T11:45:02;169.43;;;61.13;;
83125;SDS011;73488;47.234;-1.540;2023-11-19T11:50:12;69.57;;;23.65;;
83125;SDS011;73488;47.234;-1.540;2023-11-19T11:57:53;46.42;;;16.67;;
83125;SDS011;73488;47.234;-1.540;2023-11-19T12:00:38;60.47;;;17.30;;
83125;SDS011;73488;47.234;-1.540;2023-11-19T12:03:05;53.35;;;15.68;;
83125;SDS011;73488;47.234;-1.540;2023-11-19T12:05:32;44.78;;;12.60;;
83125;SDS011;73488;47.234;-1.540;2023-11-19T12:08:05;34.65;;;11.23;;
83125;SDS011;73488;47.234;-1.540;2023-11-19T12:10:33;40.08;;;11.30;;
83125;SDS011;73488;47.234;-1.540;2023-11-19T12:13:03;35.35;;;10.88;;
83125;SDS011;73488;47.234;-1.540;2023-11-19T12:15:32;29.00;;;9.90;;
83125;SDS011;73488;47.234;-1.540;2023-11-19T12:17:57;31.50;;;9.02;;
83125;SDS011;73488;47.234;-1.540;2023-11-19T12:20:24;30.20;;;9.32;;
83125;SDS011;73488;47.234;-1.540;2023-11-19T12:22:50;34.28;;;8.85;;
83125;SDS011;73488;47.234;-1.540;2023-11-19T12:25:16;29.20;;;8.80;;
83125;SDS011;73488;47.234;-1.540;2023-11-19T12:30:24;26.67;;;7.43;;
83125;SDS011;73488;47.234;-1.540;2023-11-19T12:32:50;28.00;;;7.80;;
83125;SDS011;73488;47.234;-1.540;2023-11-19T12:35:18;23.20;;;6.30;;
83125;SDS011;73488;47.234;-1.540;2023-11-19T12:37:47;26.70;;;7.18;;
83125;SDS011;73488;47.234;-1.540;2023-11-19T12:40:23;28.50;;;7.15;;
83125;SDS011;73488;47.234;-1.540;2023-11-19T12:42:50;23.38;;;7.85;;
83125;SDS011;73488;47.234;-1.540;2023-11-19T12:45:16;23.15;;;6.82;;
83125;SDS011;73488;47.234;-1.540;2023-11-19T12:47:43;28.27;;;7.47;;
83125;SDS011;73488;47.234;-1.540;2023-11-19T12:50:09;26.75;;;7.68;;
83125;SDS011;73488;47.234;-1.540;2023-11-19T12:52:35;22.73;;;6.78;;
83125;SDS011;73488;47.234;-1.540;2023-11-19T12:55:02;26.08;;;6.72;;
83125;SDS011;73488;47.234;-1.540;2023-11-19T12:57:47;34.28;;;7.00;;
83125;SDS011;73488;47.234;-1.540;2023-11-19T13:00:19;25.65;;;6.53;;
83125;SDS011;73488;47.234;-1.540;2023-11-19T13:02:48;25.60;;;7.40;;
83125;SDS011;73488;47.234;-1.540;2023-11-19T13:07:59;30.60;;;7.25;;
83125;SDS011;73488;47.234;-1.540;2023-11-19T13:10:27;22.38;;;6.70;;
83125;SDS011;73488;47.234;-1.540;2023-11-19T13:13:27;23.50;;;6.63;;
83125;SDS011;73488;47.234;-1.540;2023-11-19T13:15:45;30.73;;;6.65;;
83125;SDS011;73488;47.234;-1.540;2023-11-19T13:18:11;29.35;;;6.07;;
83125;SDS011;73488;47.234;-1.540;2023-11-19T13:20:36;25.83;;;5.72;;
83125;SDS011;73488;47.234;-1.540;2023-11-19T13:23:03;24.65;;;6.53;;
83125;SDS011;73488;47.234;-1.540;2023-11-19T13:25:30;28.92;;;6.55;;
83125;SDS011;73488;47.234;-1.540;2023-11-19T13:27:56;23.58;;;6.53;;
83125;SDS011;73488;47.234;-1.540;2023-11-19T13:30:22;26.20;;;5.63;;
83125;SDS011;73488;47.234;-1.540;2023-11-19T13:32:48;25.75;;;5.60;;
83125;SDS011;73488;47.234;-1.540;2023-11-19T13:35:14;26.15;;;5.88;;
83125;SDS011;73488;47.234;-1.540;2023-11-19T13:37:40;18.08;;;5.47;;
83125;SDS011;73488;47.234;-1.540;2023-11-19T13:40:06;19.83;;;5.22;;
83125;SDS011;73488;47.234;-1.540;2023-11-19T13:42:32;21.13;;;5.03;;
83125;SDS011;73488;47.234;-1.540;2023-11-19T13:44:58;18.95;;;4.93;;
83125;SDS011;73488;47.234;-1.540;2023-11-19T13:47:23;19.73;;;5.43;;
83125;SDS011;73488;47.234;-1.540;2023-11-19T13:49:49;19.05;;;4.32;;
83125;SDS011;73488;47.234;-1.540;2023-11-19T13:52:15;15.20;;;4.97;;
83125;SDS011;73488;47.234;-1.540;2023-11-19T13:54:40;15.18;;;4.70;;
83125;SDS011;73488;47.234;-1.540;2023-11-19T13:57:06;16.23;;;4.63;;
83125;SDS011;73488;47.234;-1.540;2023-11-19T13:59:31;19.30;;;4.95;;
83125;SDS011;73488;47.234;-1.540;2023-11-19T14:02:00;15.07;;;4.30;;
83125;SDS011;73488;47.234;-1.540;2023-11-19T14:04:25;14.45;;;4.38;;
83125;SDS011;73488;47.234;-1.540;2023-11-19T14:06:51;19.50;;;5.07;;
83125;SDS011;73488;47.234;-1.540;2023-11-19T14:09:17;19.77;;;5.38;;
83125;SDS011;73488;47.234;-1.540;2023-11-19T14:11:42;16.17;;;4.43;;
83125;SDS011;73488;47.234;-1.540;2023-11-19T14:14:08;14.07;;;3.85;;
83125;SDS011;73488;47.234;-1.540;2023-11-19T14:16:34;16.13;;;3.95;;
83125;SDS011;73488;47.234;-1.540;2023-11-19T14:18:59;14.98;;;4.20;;
83125;SDS011;73488;47.234;-1.540;2023-11-19T14:21:25;13.00;;;3.67;;
83125;SDS011;73488;47.234;-1.540;2023-11-19T14:23:51;18.65;;;4.40;;
83125;SDS011;73488;47.234;-1.540;2023-11-19T14:26:17;13.68;;;3.95;;
83125;SDS011;73488;47.234;-1.540;2023-11-19T14:28:43;14.90;;;4.05;;
83125;SDS011;73488;47.234;-1.540;2023-11-19T14:31:08;19.75;;;4.15;;
83125;SDS011;73488;47.234;-1.540;2023-11-19T14:33:33;11.43;;;3.58;;
83125;SDS011;73488;47.234;-1.540;2023-11-19T14:36:01;13.75;;;4.22;;
83125;SDS011;73488;47.234;-1.540;2023-11-19T14:38:26;13.63;;;4.60;;
83125;SDS011;73488;47.234;-1.540;2023-11-19T14:40:52;12.63;;;3.40;;
83125;SDS011;73488;47.234;-1.540;2023-11-19T14:43:17;11.52;;;3.40;;
83125;SDS011;73488;47.234;-1.540;2023-11-19T14:45:42;10.95;;;3.50;;
83125;SDS011;73488;47.234;-1.540;2023-11-19T14:48:08;14.70;;;4.05;;
83125;SDS011;73488;47.234;-1.540;2023-11-19T14:50:35;13.63;;;4.55;;
83125;SDS011;73488;47.234;-1.540;2023-11-19T14:53:00;14.43;;;4.18;;
83125;SDS011;73488;47.234;-1.540;2023-11-19T14:55:26;12.95;;;3.53;;
83125;SDS011;73488;47.234;-1.540;2023-11-19T14:57:51;13.38;;;3.05;;
83125;SDS011;73488;47.234;-1.540;2023-11-19T15:00:17;14.32;;;3.47;;
83125;SDS011;73488;47.234;-1.540;2023-11-19T15:02:42;11.48;;;3.72;;
83125;SDS011;73488;47.234;-1.540;2023-11-19T15:05:08;16.42;;;3.70;;
83125;SDS011;73488;47.234;-1.540;2023-11-19T15:07:37;12.35;;;3.42;;
83125;SDS011;73488;47.234;-1.540;2023-11-19T15:10:03;13.75;;;3.55;;